SBMO/MCZ METAR and TAF weather

Enter ICAO airport designator
Station Type Date Time Source
SBMO METAR 2020/02/25 11:00 UTC NOAA

SBMO 251100Z 08006KT 050V120 9999 BKN017 SCT050 28/24 Q1014


Station Type Date Time Source
SBMO Decoded METAR 2020/02/25 11:00 UTC NOAA

Maceio Aeroporto , Brazil (SBMO) 09-31S 035-47W 115M
Feb 25, 2020 - 06:00 AM EST / 2020.02.25 1100 UTC
Wind: from the E (080 degrees) at 7 MPH (6 KT) (direction variable):0
Visibility: greater than 7 mile(s):0
Sky conditions: mostly cloudy
Temperature: 82 F (28 C)
Dew Point: 75 F (24 C)
Relative Humidity: 78%
Pressure (altimeter): 29.94 in. Hg (1014 hPa)
ob: SBMO 251100Z 08006KT 050V120 9999 BKN017 SCT050 28/24 Q1014
cycle: 11

Station Type Date Time Source
SBMO TAF 2020/02/25 12:30 UTC NOAA

TAF TAF SBMO 251000Z 2512/2612 13010KT 9999 SCT020 FEW030TCU TX32/2516Z TN24/2609Z
BECMG 2518/2520 SCT030
RMK PED

Example: see airport list